createdAt,value
2022-12-28T00:00:46.866Z,98395.56
2022-12-28T00:02:48.255Z,98399.81
2022-12-28T00:04:49.629Z,98395.22
2022-12-28T00:06:51.596Z,98381.00
2022-12-28T00:08:52.927Z,98389.78
2022-12-28T00:11:08.210Z,98384.78
2022-12-28T00:13:11.743Z,98381.47
2022-12-28T00:15:13.070Z,98384.53
2022-12-28T00:17:14.359Z,98386.50
2022-12-28T00:19:15.655Z,98382.47
2022-12-28T00:21:16.991Z,98383.88
2022-12-28T00:23:18.279Z,98379.31
2022-12-28T00:25:19.581Z,98378.97
2022-12-28T00:27:20.904Z,98376.47
2022-12-28T00:29:22.200Z,98374.34
2022-12-28T00:31:23.676Z,98364.81
2022-12-28T00:33:25.033Z,98374.06
2022-12-28T00:35:26.342Z,98380.72
2022-12-28T00:37:27.733Z,98377.16
2022-12-28T00:39:29.044Z,98380.31
2022-12-28T00:41:30.354Z,98379.28
2022-12-28T00:43:31.819Z,98387.56
2022-12-28T00:45:33.183Z,98385.69
2022-12-28T00:47:34.511Z,98379.50
2022-12-28T00:49:35.896Z,98372.41
2022-12-28T00:51:37.257Z,98368.03
2022-12-28T00:53:38.588Z,98368.03
2022-12-28T00:55:39.952Z,98365.41
2022-12-28T00:57:41.300Z,98371.38
2022-12-28T00:59:42.600Z,98372.97
2022-12-28T01:01:44.055Z,98360.97
2022-12-28T01:03:45.502Z,98359.25
2022-12-28T01:05:46.816Z,98351.59
2022-12-28T01:07:48.159Z,98355.88
2022-12-28T01:09:49.452Z,98369.56
2022-12-28T01:11:50.764Z,98378.91
2022-12-28T01:13:52.125Z,98361.94
2022-12-28T01:15:53.450Z,98370.53
2022-12-28T01:17:54.799Z,98373.16
2022-12-28T01:19:56.134Z,98370.69
2022-12-28T01:21:58.003Z,98365.66
2022-12-28T01:23:59.520Z,98371.78
2022-12-28T01:26:00.914Z,98366.72
2022-12-28T01:28:02.380Z,98370.25
2022-12-28T01:30:03.686Z,98369.50
2022-12-28T01:32:05.055Z,98362.78
2022-12-28T01:34:06.382Z,98372.25
2022-12-28T01:36:08.397Z,98359.59
2022-12-28T01:38:09.690Z,98358.84
2022-12-28T01:40:11.143Z,98353.00
2022-12-28T01:42:12.439Z,98349.66
2022-12-28T01:44:13.889Z,98341.22
2022-12-28T01:46:15.359Z,98341.34
2022-12-28T01:48:16.909Z,98339.69
2022-12-28T01:50:18.291Z,98344.03
2022-12-28T01:52:19.844Z,98338.13
2022-12-28T01:54:21.191Z,98332.22
2022-12-28T01:56:22.532Z,98326.31
2022-12-28T01:58:23.841Z,98325.50
2022-12-28T02:00:26.863Z,98319.53
2022-12-28T02:02:28.333Z,98309.28
2022-12-28T02:04:29.794Z,98305.84
2022-12-28T02:06:31.136Z,98295.56
2022-12-28T02:08:32.505Z,98293.81
2022-12-28T02:10:41.569Z,98298.00
2022-12-28T02:12:46.749Z,98285.09
2022-12-28T02:14:48.120Z,98281.50
2022-12-28T02:16:49.526Z,98275.34
2022-12-28T02:18:50.952Z,98268.38
2022-12-28T02:20:52.253Z,98266.44
2022-12-28T02:22:53.563Z,98262.00
2022-12-28T02:25:13.060Z,98259.22
2022-12-28T02:27:14.864Z,98259.00
2022-12-28T02:29:16.218Z,98244.22
2022-12-28T02:31:17.573Z,98252.06
2022-12-28T02:33:19.022Z,98245.31
2022-12-28T02:35:20.326Z,98247.91
2022-12-28T02:37:21.617Z,98235.13
2022-12-28T02:39:23.603Z,98222.38
2022-12-28T02:41:24.971Z,98218.13
2022-12-28T02:43:26.376Z,98220.00
2022-12-28T02:45:46.628Z,98224.31
2022-12-28T02:48:06.460Z,98227.88
2022-12-28T02:50:07.827Z,98225.41
2022-12-28T02:52:09.208Z,98216.09
2022-12-28T02:54:10.529Z,98209.41
2022-12-28T02:56:12.078Z,98213.72
2022-12-28T02:58:13.424Z,98207.81
2022-12-28T03:00:14.727Z,98050.53
2022-12-28T03:02:16.217Z,98195.28
2022-12-28T03:04:17.683Z,98197.94
2022-12-28T03:06:37.717Z,98193.75
2022-12-28T03:08:39.070Z,98187.03
2022-12-28T03:10:40.387Z,98189.75
2022-12-28T03:12:41.778Z,98181.28
2022-12-28T03:14:43.116Z,98179.69
2022-12-28T03:17:03.042Z,98183.22
2022-12-28T03:19:22.990Z,98176.47
2022-12-28T03:21:43.036Z,98177.44
2022-12-28T03:24:02.880Z,98167.31
2022-12-28T03:26:22.832Z,98168.19
2022-12-28T03:28:42.598Z,98160.47
2022-12-28T03:31:02.411Z,98168.88
2022-12-28T03:33:03.750Z,98165.34
2022-12-28T03:35:05.054Z,98161.81
2022-12-28T03:37:06.354Z,98148.88
2022-12-28T03:39:07.680Z,98157.94
2022-12-28T03:41:09.066Z,98156.06
2022-12-28T03:43:29.157Z,98135.41
2022-12-28T03:45:45.948Z,98148.91
2022-12-28T03:47:48.631Z,98144.50
2022-12-28T03:49:50.069Z,98151.16
2022-12-28T03:51:51.412Z,98140.88
2022-12-28T03:53:52.742Z,98144.25
2022-12-28T03:55:54.039Z,98139.94
2022-12-28T03:57:55.374Z,98132.22
2022-12-28T03:59:56.715Z,98131.31
2022-12-28T04:01:58.166Z,98122.84
2022-12-28T04:03:59.532Z,98136.50
2022-12-28T04:06:00.874Z,98128.06
2022-12-28T04:08:02.170Z,98129.78
2022-12-28T04:10:03.518Z,98117.91
2022-12-28T04:12:04.816Z,98110.34
2022-12-28T04:14:10.725Z,98118.97
2022-12-28T04:16:12.645Z,98115.66
2022-12-28T04:18:13.961Z,98109.84
2022-12-28T04:20:15.253Z,98108.19
2022-12-28T04:22:16.652Z,98109.94
2022-12-28T04:24:17.942Z,98104.84
2022-12-28T04:26:19.254Z,98095.59
2022-12-28T04:28:20.590Z,98099.97
2022-12-28T04:30:21.927Z,98094.09
2022-12-28T04:32:23.291Z,98093.41
2022-12-28T04:34:24.583Z,98084.09
2022-12-28T04:36:25.996Z,98082.38
2022-12-28T04:38:27.319Z,98085.00
2022-12-28T04:40:28.653Z,98080.88
2022-12-28T04:42:29.992Z,98075.88
2022-12-28T04:44:32.473Z,98075.03
2022-12-28T04:46:33.825Z,98066.53
2022-12-28T04:48:35.210Z,98064.00
2022-12-28T04:50:36.523Z,98068.16
2022-12-28T04:52:37.855Z,98051.91
2022-12-28T04:54:39.188Z,98059.59
2022-12-28T04:56:40.479Z,98045.06
2022-12-28T04:58:41.794Z,98054.28
2022-12-28T05:00:43.131Z,98043.88
2022-12-28T05:02:46.463Z,98046.31
2022-12-28T05:04:47.904Z,98048.81
2022-12-28T05:06:49.250Z,98039.50
2022-12-28T05:08:50.622Z,98053.13
2022-12-28T05:10:51.921Z,98053.13
2022-12-28T05:12:53.214Z,98050.69
2022-12-28T05:14:54.547Z,98052.53
2022-12-28T05:16:55.852Z,98055.16
2022-12-28T05:18:57.516Z,98045.00
2022-12-28T05:20:58.879Z,98045.84
2022-12-28T05:23:00.178Z,98048.41
2022-12-28T05:25:01.475Z,98058.56
2022-12-28T05:27:02.970Z,98054.22
2022-12-28T05:29:04.260Z,98053.28
2022-12-28T05:31:05.614Z,98053.13
2022-12-28T05:33:06.939Z,98053.72
2022-12-28T05:35:08.278Z,98058.66
2022-12-28T05:37:09.614Z,98054.31
2022-12-28T05:39:11.077Z,98054.31
2022-12-28T05:41:12.428Z,98050.91
2022-12-28T05:43:13.748Z,98044.91
2022-12-28T05:45:15.080Z,98039.75
2022-12-28T05:47:16.402Z,98039.69
2022-12-28T05:49:18.107Z,98032.88
2022-12-28T05:51:19.432Z,98031.28
2022-12-28T05:53:20.724Z,98027.91
2022-12-28T05:55:22.077Z,98029.69
2022-12-28T05:57:23.367Z,98022.09
2022-12-28T05:59:24.659Z,98028.91
2022-12-28T06:01:26.074Z,98020.38
2022-12-28T06:03:27.570Z,98025.47
2022-12-28T06:05:28.998Z,98030.66
2022-12-28T06:07:30.307Z,98017.16
2022-12-28T06:09:32.262Z,98007.88
2022-12-28T06:11:33.567Z,98021.56
2022-12-28T06:13:34.916Z,98022.47
2022-12-28T06:15:36.206Z,98019.91
2022-12-28T06:17:37.986Z,98008.84
2022-12-28T06:19:39.287Z,98000.44
2022-12-28T06:21:40.655Z,98003.91
2022-12-28T06:23:41.955Z,97994.63
2022-12-28T06:25:43.251Z,97995.47
2022-12-28T06:27:44.588Z,97995.34
2022-12-28T06:29:45.893Z,97997.91
2022-12-28T06:31:48.021Z,98003.09
2022-12-28T06:33:49.439Z,98015.91
2022-12-28T06:35:50.789Z,98019.31
2022-12-28T06:37:52.123Z,98020.16
2022-12-28T06:39:53.486Z,98014.13
2022-12-28T06:41:54.787Z,98008.97
2022-12-28T06:43:56.128Z,98007.13
2022-12-28T06:45:57.483Z,98016.44
2022-12-28T06:47:58.831Z,98007.91
2022-12-28T06:50:00.222Z,97998.53
2022-12-28T06:52:01.530Z,98009.50
2022-12-28T06:54:02.861Z,97991.63
2022-12-28T06:56:04.235Z,97994.94
2022-12-28T06:58:05.571Z,97999.13
2022-12-28T07:00:07.059Z,97999.81
2022-12-28T07:02:08.604Z,97993.91
2022-12-28T07:04:10.014Z,98003.34
2022-12-28T07:06:11.363Z,98002.50
2022-12-28T07:08:13.053Z,97981.31
2022-12-28T07:10:14.460Z,97987.34
2022-12-28T07:12:15.795Z,97998.44
2022-12-28T07:14:17.202Z,97995.88
2022-12-28T07:16:18.567Z,98010.34
2022-12-28T07:18:19.923Z,98002.75
2022-12-28T07:20:21.216Z,97996.00
2022-12-28T07:22:22.551Z,97990.94
2022-12-28T07:24:23.889Z,97991.88
2022-12-28T07:26:25.200Z,97985.97
2022-12-28T07:28:26.552Z,97979.22
2022-12-28T07:30:27.979Z,97971.50
2022-12-28T07:32:29.403Z,97973.25
2022-12-28T07:34:30.725Z,97951.31
2022-12-28T07:36:32.081Z,97958.25
2022-12-28T07:38:33.413Z,97957.53
2022-12-28T07:40:34.732Z,97955.06
2022-12-28T07:42:36.027Z,97952.59
2022-12-28T07:44:38.377Z,97957.69
2022-12-28T07:46:40.346Z,97955.94
2022-12-28T07:48:41.707Z,97941.50
2022-12-28T07:50:43.023Z,97955.06
2022-12-28T07:52:44.360Z,97941.41
2022-12-28T07:54:45.659Z,97949.00
2022-12-28T07:56:46.950Z,97957.47
2022-12-28T08:00:48.517Z,97955.63
2022-12-28T08:02:49.825Z,97952.91
2022-12-28T08:04:52.408Z,97948.44
2022-12-28T08:06:54.047Z,97936.31
2022-12-28T08:08:55.351Z,97936.97
2022-12-28T08:10:56.674Z,97938.59
2022-12-28T08:12:57.972Z,97940.44
2022-12-28T08:15:01.215Z,97925.41
2022-12-28T08:17:02.611Z,97929.38
2022-12-28T08:19:03.928Z,97934.97
2022-12-28T08:21:05.263Z,97928.28
2022-12-28T08:23:06.609Z,97922.63
2022-12-28T08:25:07.899Z,97926.09
2022-12-28T08:27:09.198Z,97919.47
2022-12-28T08:29:10.532Z,97912.81
2022-12-28T08:31:11.916Z,97907.81
2022-12-28T08:33:13.277Z,97909.66
2022-12-28T08:35:14.742Z,97912.28
2022-12-28T08:37:16.077Z,97920.91
2022-12-28T08:39:17.374Z,97912.44
2022-12-28T08:41:18.725Z,97919.34
2022-12-28T08:43:20.050Z,97917.78
2022-12-28T08:45:21.363Z,97910.16
2022-12-28T08:47:22.695Z,97917.09
2022-12-28T08:49:23.998Z,97905.25
2022-12-28T08:51:25.333Z,97908.69
2022-12-28T08:53:26.645Z,97913.03
2022-12-28T08:55:27.981Z,97917.28
2022-12-28T08:57:29.323Z,97911.31
2022-12-28T08:59:30.677Z,97913.81
2022-12-28T09:01:35.866Z,97913.75
2022-12-28T09:03:40.646Z,97909.44
2022-12-28T09:05:41.958Z,97909.38
2022-12-28T09:07:43.322Z,97905.06
2022-12-28T09:09:44.690Z,97909.16
2022-12-28T09:11:46.023Z,97910.75
2022-12-28T09:13:47.342Z,97914.09
2022-12-28T09:15:48.723Z,97910.59
2022-12-28T09:17:50.031Z,97907.09
2022-12-28T09:19:51.362Z,97907.00
2022-12-28T09:21:53.311Z,97898.47
2022-12-28T09:23:57.745Z,97890.78
2022-12-28T09:25:59.092Z,97895.78
2022-12-28T09:28:00.428Z,97883.84
2022-12-28T09:30:01.754Z,97876.81
2022-12-28T09:32:03.109Z,97883.16
2022-12-28T09:36:29.094Z,97853.59
2022-12-28T09:38:30.418Z,97844.97
2022-12-28T09:40:31.718Z,97846.16
2022-12-28T09:42:33.056Z,97837.06
2022-12-28T09:44:34.457Z,97820.56
2022-12-28T09:46:35.779Z,97818.41
2022-12-28T09:48:37.148Z,97813.69
2022-12-28T09:50:38.471Z,97818.91
2022-12-28T09:52:43.586Z,97814.53
2022-12-28T09:54:49.218Z,97806.06
2022-12-28T09:56:50.520Z,97800.09
2022-12-28T09:58:52.151Z,97800.06
2022-12-28T10:00:53.480Z,97794.94
2022-12-28T10:02:54.815Z,97796.59
2022-12-28T10:04:56.121Z,97798.41
2022-12-28T10:07:01.813Z,97793.66
2022-12-28T10:09:03.215Z,97793.16
2022-12-28T10:11:04.504Z,97783.28
2022-12-28T10:13:09.348Z,97789.88
2022-12-28T10:15:17.845Z,97781.56
2022-12-28T10:17:19.150Z,97788.47
2022-12-28T10:19:20.496Z,97790.59
2022-12-28T10:21:26.808Z,97762.69
2022-12-28T10:24:04.606Z,97780.47
2022-12-28T10:26:03.691Z,97768.00
2022-12-28T10:28:05.030Z,97767.84
2022-12-28T10:30:06.341Z,97767.84
2022-12-28T10:32:09.394Z,97750.03
2022-12-28T10:34:10.703Z,97767.84
2022-12-28T10:36:12.039Z,97753.41
2022-12-28T10:38:13.388Z,97750.13
2022-12-28T10:40:15.506Z,97766.38
2022-12-28T10:42:16.840Z,97758.22
2022-12-28T10:46:40.069Z,97759.75
2022-12-28T10:48:41.380Z,97755.25
2022-12-28T10:50:42.769Z,97730.94
2022-12-28T10:52:44.131Z,97732.84
2022-12-28T10:54:48.970Z,97721.91
2022-12-28T10:57:06.892Z,97733.84
2022-12-28T10:59:14.240Z,97730.41
2022-12-28T11:01:17.827Z,97731.19
2022-12-28T11:03:19.456Z,97730.25
2022-12-28T11:05:21.001Z,97735.19
2022-12-28T11:07:22.302Z,97717.97
2022-12-28T11:09:23.633Z,97706.72
2022-12-28T11:11:24.972Z,97570.06
2022-12-28T11:13:27.370Z,97702.13
2022-12-28T11:15:28.708Z,97699.28
2022-12-28T11:17:31.380Z,97709.41
2022-12-28T11:19:32.736Z,97724.50
2022-12-28T11:21:34.034Z,97715.84
2022-12-28T11:23:35.602Z,97714.91
2022-12-28T11:25:36.932Z,97702.91
2022-12-28T11:27:38.235Z,97712.19
2022-12-28T11:29:39.530Z,97702.75
2022-12-28T11:31:40.916Z,97701.94
2022-12-28T11:33:42.289Z,97702.75
2022-12-28T11:35:43.671Z,97703.56
2022-12-28T11:37:45.002Z,97686.53
2022-12-28T11:39:46.439Z,97688.25
2022-12-28T11:42:10.424Z,97693.44
2022-12-28T11:44:12.194Z,97682.34
2022-12-28T11:46:13.508Z,97685.78
2022-12-28T11:48:14.854Z,97675.66
2022-12-28T11:50:16.151Z,97680.88
2022-12-28T11:52:17.638Z,97683.47
2022-12-28T11:54:19.038Z,97665.72
2022-12-28T11:56:20.339Z,97665.03
2022-12-28T11:58:24.632Z,97656.66
2022-12-28T12:00:25.946Z,97649.94
2022-12-28T12:02:27.364Z,97593.91
2022-12-28T12:04:29.442Z,97638.25
2022-12-28T12:06:35.393Z,97629.00
2022-12-28T12:08:40.304Z,97626.63
2022-12-28T12:10:41.865Z,97631.88
2022-12-28T12:12:43.254Z,97625.19
2022-12-28T12:14:44.599Z,97630.31
2022-12-28T12:16:45.972Z,97623.66
2022-12-28T12:18:47.425Z,97630.56
2022-12-28T12:20:48.806Z,97628.06
2022-12-28T12:22:52.001Z,97634.88
2022-12-28T12:24:56.553Z,97640.06
2022-12-28T12:26:58.741Z,97639.25
2022-12-28T12:29:00.394Z,97646.91
2022-12-28T12:31:01.905Z,97635.84
2022-12-28T12:33:03.232Z,97632.38
2022-12-28T12:35:04.911Z,97640.06
2022-12-28T12:37:06.238Z,97639.25
2022-12-28T12:39:08.624Z,97635.56
2022-12-28T12:41:09.969Z,97627.69
2022-12-28T12:43:17.186Z,97633.41
2022-12-28T12:45:18.491Z,97635.88
2022-12-28T12:47:19.793Z,97638.34
2022-12-28T12:49:21.092Z,97636.63
2022-12-28T12:51:25.182Z,97636.56
2022-12-28T12:53:26.480Z,97636.56
2022-12-28T12:55:27.795Z,97629.75
2022-12-28T12:57:29.087Z,97633.09
2022-12-28T12:59:30.386Z,97631.53
2022-12-28T13:01:31.828Z,97632.34
2022-12-28T13:03:34.242Z,97622.22
2022-12-28T13:05:36.293Z,97630.69
2022-12-28T13:07:37.582Z,97624.81
2022-12-28T13:09:38.887Z,97623.97
2022-12-28T13:11:40.171Z,97622.34
2022-12-28T13:13:41.512Z,97611.44
2022-12-28T13:15:45.982Z,97614.88
2022-12-28T13:17:47.296Z,97603.81
2022-12-28T13:19:48.598Z,97610.50
2022-12-28T13:21:49.957Z,97593.53
2022-12-28T13:23:51.848Z,97601.28
2022-12-28T13:25:53.324Z,97600.44
2022-12-28T13:27:54.743Z,97597.03
2022-12-28T13:29:56.114Z,97587.75
2022-12-28T13:31:57.447Z,97591.97
2022-12-28T13:33:58.884Z,97590.28
2022-12-28T13:36:00.191Z,97580.13
2022-12-28T13:38:02.869Z,97587.81
2022-12-28T13:40:04.175Z,97583.50
2022-12-28T13:42:08.529Z,97589.50
2022-12-28T13:44:09.891Z,97447.53
2022-12-28T13:46:11.313Z,97593.78
2022-12-28T13:48:12.683Z,97593.84
2022-12-28T13:50:14.402Z,97598.97
2022-12-28T13:52:18.781Z,97599.97
2022-12-28T13:54:20.192Z,97600.94
2022-12-28T13:56:21.490Z,97599.19
2022-12-28T13:58:22.781Z,97598.28
2022-12-28T14:00:24.160Z,97599.31
2022-12-28T14:02:25.577Z,97591.06
2022-12-28T14:04:51.638Z,97596.94
2022-12-28T14:06:48.354Z,97594.31
2022-12-28T14:08:50.642Z,97589.19
2022-12-28T14:10:52.010Z,97586.50
2022-12-28T14:12:53.312Z,97586.41
2022-12-28T14:14:54.662Z,97582.91
2022-12-28T14:16:55.959Z,97582.78
2022-12-28T14:18:57.251Z,97591.09
2022-12-28T14:20:58.580Z,97592.63
2022-12-28T14:22:59.908Z,97597.63
2022-12-28T14:25:01.216Z,97590.63
2022-12-28T14:27:02.551Z,97593.03
2022-12-28T14:29:03.923Z,97593.81
2022-12-28T14:31:05.349Z,97581.72
2022-12-28T14:33:13.144Z,97582.41
2022-12-28T14:35:15.845Z,97587.41
2022-12-28T14:37:19.068Z,97589.03
2022-12-28T14:39:20.385Z,97586.47
2022-12-28T14:41:21.760Z,97588.25
2022-12-28T14:43:23.100Z,97593.38
2022-12-28T14:45:24.442Z,97591.69
2022-12-28T14:47:25.782Z,97593.38
2022-12-28T14:49:27.139Z,97596.88
2022-12-28T14:51:28.579Z,97597.75
2022-12-28T14:53:30.051Z,97600.31
2022-12-28T14:55:31.357Z,97600.88
2022-12-28T14:57:32.705Z,97610.19
2022-12-28T14:59:34.714Z,97608.13
2022-12-28T15:01:36.170Z,97601.59
2022-12-28T15:03:40.243Z,97597.56
2022-12-28T15:05:41.690Z,97605.75
2022-12-28T15:07:43.007Z,97603.59
2022-12-28T15:09:44.317Z,97608.09
2022-12-28T15:11:46.112Z,97609.44
2022-12-28T15:13:47.535Z,97605.41
2022-12-28T15:15:55.179Z,97612.50
2022-12-28T15:17:56.527Z,97609.09
2022-12-28T15:19:57.865Z,97610.88
2022-12-28T15:21:59.188Z,97597.03
2022-12-28T15:24:00.538Z,97603.34
2022-12-28T15:26:01.879Z,97604.09
2022-12-28T15:28:03.200Z,97598.03
2022-12-28T15:30:05.943Z,97594.16
2022-12-28T15:32:08.179Z,97588.81
2022-12-28T15:34:09.474Z,97586.63
2022-12-28T15:36:16.696Z,97583.84
2022-12-28T15:38:18.870Z,97591.06
2022-12-28T15:40:20.242Z,97578.88
2022-12-28T15:42:21.546Z,97586.41
2022-12-28T15:44:22.923Z,97583.63
2022-12-28T15:46:24.340Z,97581.97
2022-12-28T15:48:28.720Z,97586.03
2022-12-28T15:52:31.342Z,97585.59
2022-12-28T15:54:32.646Z,97592.09
2022-12-28T15:56:33.937Z,97584.59
2022-12-28T15:58:35.287Z,97593.88
2022-12-28T16:00:36.634Z,97594.53
2022-12-28T16:02:38.395Z,97585.16
2022-12-28T16:04:42.724Z,97586.03
2022-12-28T16:06:47.100Z,97444.97
2022-12-28T16:08:48.393Z,97572.56
2022-12-28T16:10:50.479Z,97579.56
2022-12-28T16:12:54.635Z,97583.97
2022-12-28T16:14:55.975Z,97582.91
2022-12-28T16:16:57.347Z,97584.91
2022-12-28T16:18:58.727Z,97575.09
2022-12-28T16:21:02.978Z,97574.31
2022-12-28T16:23:04.402Z,97577.09
2022-12-28T16:25:05.700Z,97571.13
2022-12-28T16:27:07.049Z,97571.09
2022-12-28T16:29:08.355Z,97569.53
2022-12-28T16:31:09.675Z,97573.69
2022-12-28T16:33:14.513Z,97573.22
2022-12-28T16:35:15.855Z,97577.16
2022-12-28T16:37:18.414Z,97572.09
2022-12-28T16:39:20.975Z,97572.28
2022-12-28T16:41:24.983Z,97572.56
2022-12-28T16:43:26.284Z,97575.09
2022-12-28T16:45:27.593Z,97566.38
2022-12-28T16:47:31.777Z,97565.78
2022-12-28T16:49:33.155Z,97565.31
2022-12-28T16:51:34.495Z,97572.97
2022-12-28T16:53:35.790Z,97570.84
2022-12-28T16:55:37.095Z,97566.97
2022-12-28T16:57:38.527Z,97565.94
2022-12-28T16:59:39.858Z,97556.69
2022-12-28T17:01:42.311Z,97560.09
2022-12-28T17:03:46.722Z,97548.50
2022-12-28T17:05:48.055Z,97558.06
2022-12-28T17:07:52.316Z,97544.88
2022-12-28T17:09:53.654Z,97550.66
2022-12-28T17:11:54.989Z,97538.53
2022-12-28T17:13:56.285Z,97549.78
2022-12-28T17:15:57.623Z,97535.53
2022-12-28T17:18:01.937Z,97539.88
2022-12-28T17:20:03.257Z,97538.88
2022-12-28T17:22:04.610Z,97540.59
2022-12-28T17:24:05.931Z,97537.03
2022-12-28T17:26:10.137Z,97545.22
2022-12-28T17:28:11.436Z,97541.09
2022-12-28T17:30:12.778Z,97543.28
2022-12-28T17:32:14.781Z,97539.06
2022-12-28T17:34:16.154Z,97541.56
2022-12-28T17:36:17.465Z,97539.25
2022-12-28T17:38:18.771Z,97542.06
2022-12-28T17:40:20.121Z,97541.28
2022-12-28T17:42:27.656Z,97538.34
2022-12-28T17:44:28.967Z,97548.00
2022-12-28T17:46:30.547Z,97541.72
2022-12-28T17:48:31.963Z,97542.41
2022-12-28T17:50:36.194Z,97543.13
2022-12-28T17:52:37.525Z,97537.94
2022-12-28T17:54:38.832Z,97543.22
2022-12-28T17:56:40.123Z,97533.50
2022-12-28T17:58:41.473Z,97534.72
2022-12-28T18:00:42.774Z,97538.06
2022-12-28T18:02:44.512Z,97534.69
2022-12-28T18:04:46.030Z,97530.31
2022-12-28T18:06:47.335Z,97530.28
2022-12-28T18:08:51.538Z,97525.72
2022-12-28T18:10:52.873Z,97530.25
2022-12-28T18:12:54.643Z,97531.31
2022-12-28T18:14:56.607Z,97527.06
2022-12-28T18:16:57.973Z,97530.16
2022-12-28T18:18:59.843Z,97532.03
2022-12-28T18:21:01.430Z,97535.53
2022-12-28T18:23:02.751Z,97538.50
2022-12-28T18:25:04.218Z,97531.19
2022-12-28T18:27:05.572Z,97524.91
2022-12-28T18:29:06.977Z,97518.34
2022-12-28T18:31:09.252Z,97522.03
2022-12-28T18:33:10.582Z,97523.94
2022-12-28T18:35:11.936Z,97526.38
2022-12-28T18:37:13.271Z,97521.38
2022-12-28T18:39:14.655Z,97522.34
2022-12-28T18:41:16.031Z,97515.69
2022-12-28T18:43:17.329Z,97522.59
2022-12-28T18:45:18.696Z,97518.34
2022-12-28T18:47:20.043Z,97514.09
2022-12-28T18:49:29.197Z,97517.28
2022-12-28T18:51:30.497Z,97528.03
2022-12-28T18:53:31.823Z,97521.94
2022-12-28T18:55:33.117Z,97525.09
2022-12-28T18:57:34.424Z,97524.28
2022-12-28T18:59:35.723Z,97518.31
2022-12-28T19:02:05.755Z,97518.47
2022-12-28T19:04:01.332Z,97514.31
2022-12-28T19:06:05.694Z,97516.63
2022-12-28T19:08:07.000Z,97514.06
2022-12-28T19:10:13.066Z,97504.78
2022-12-28T19:12:14.659Z,97508.28
2022-12-28T19:14:15.957Z,97505.84
2022-12-28T19:16:17.379Z,97497.22
2022-12-28T19:18:21.578Z,97504.59
2022-12-28T19:20:23.578Z,97509.91
2022-12-28T19:22:24.871Z,97506.13
2022-12-28T19:24:26.257Z,97514.47
2022-12-28T19:26:30.423Z,97510.00
2022-12-28T19:28:31.725Z,97497.94
2022-12-28T19:30:34.281Z,97498.88
2022-12-28T19:32:35.591Z,97504.88
2022-12-28T19:34:36.900Z,97496.44
2022-12-28T19:36:38.252Z,97503.16
2022-12-28T19:38:39.584Z,97502.00
2022-12-28T19:40:41.007Z,97504.63
2022-12-28T19:42:42.349Z,97496.03
2022-12-28T19:44:46.800Z,97494.31
2022-12-28T19:46:48.554Z,97500.97
2022-12-28T19:48:49.948Z,97489.66
2022-12-28T19:50:51.313Z,97493.28
2022-12-28T19:52:55.424Z,97490.88
2022-12-28T19:54:56.719Z,97491.56
2022-12-28T19:56:58.019Z,97489.84
2022-12-28T19:59:05.607Z,97501.31
2022-12-28T20:01:08.224Z,97497.22
2022-12-28T20:03:09.877Z,97488.94
2022-12-28T20:05:11.297Z,97487.88
2022-12-28T20:07:12.619Z,97487.78
2022-12-28T20:09:13.991Z,97482.59
2022-12-28T20:11:15.299Z,97486.16
2022-12-28T20:13:22.401Z,97487.81
2022-12-28T20:15:23.710Z,97474.06
2022-12-28T20:17:25.011Z,97463.78
2022-12-28T20:19:26.357Z,97472.34
2022-12-28T20:21:27.892Z,97457.09
2022-12-28T20:23:29.222Z,97459.72
2022-12-28T20:25:30.552Z,97453.47
2022-12-28T20:27:32.273Z,97448.47
2022-12-28T20:29:33.644Z,97446.97
2022-12-28T20:31:38.052Z,97449.69
2022-12-28T20:33:39.578Z,97450.59
2022-12-28T20:35:43.555Z,97443.81
2022-12-28T20:37:47.680Z,97438.50
2022-12-28T20:39:49.019Z,97289.09
2022-12-28T20:42:11.512Z,97436.50
2022-12-28T20:44:12.921Z,97441.25
2022-12-28T20:46:14.246Z,97442.16
2022-12-28T20:48:15.575Z,97445.31
2022-12-28T20:50:16.876Z,97442.66
2022-12-28T20:52:18.316Z,97437.97
2022-12-28T20:54:22.700Z,97433.81
2022-12-28T20:56:24.047Z,97433.47
2022-12-28T20:58:25.339Z,97433.09
2022-12-28T21:00:26.691Z,97424.72
2022-12-28T21:02:28.069Z,97432.84
2022-12-28T21:04:29.386Z,97429.47
2022-12-28T21:06:30.756Z,97436.63
2022-12-28T21:08:32.091Z,97436.78
2022-12-28T21:10:33.454Z,97425.78
2022-12-28T21:12:34.811Z,97432.63
2022-12-28T21:14:36.094Z,97427.31
2022-12-28T21:18:39.017Z,97427.88
2022-12-28T21:20:40.329Z,97427.00
2022-12-28T21:22:41.633Z,97420.16
2022-12-28T21:24:42.970Z,97425.19
2022-12-28T21:26:44.416Z,97415.91
2022-12-28T21:28:48.625Z,97409.97
2022-12-28T21:30:55.670Z,97416.88
2022-12-28T21:32:57.371Z,97410.06
2022-12-28T21:34:58.702Z,97405.72
2022-12-28T21:37:20.061Z,97405.47
2022-12-28T21:39:21.396Z,97406.63
2022-12-28T21:41:41.845Z,97400.06
2022-12-28T21:43:43.553Z,97383.75
2022-12-28T21:45:45.085Z,97382.81
2022-12-28T21:47:46.643Z,97378.28
2022-12-28T21:49:47.995Z,97386.78
2022-12-28T21:51:50.313Z,97376.63
2022-12-28T21:53:51.951Z,97374.06
2022-12-28T21:55:53.304Z,97375.00
2022-12-28T21:57:59.614Z,97362.22
2022-12-28T22:00:21.212Z,97365.47
2022-12-28T22:02:41.306Z,97362.69
2022-12-28T22:05:03.324Z,97358.81
2022-12-28T22:07:04.949Z,97346.88
2022-12-28T22:09:24.865Z,97339.19
2022-12-28T22:11:44.842Z,97335.78
2022-12-28T22:13:47.023Z,97333.47
2022-12-28T22:15:51.535Z,97332.44
2022-12-28T22:17:53.558Z,97342.31
2022-12-28T22:19:55.251Z,97330.28
2022-12-28T22:21:59.580Z,97325.19
2022-12-28T22:24:00.876Z,97318.34
2022-12-28T22:26:02.198Z,97321.13
2022-12-28T22:28:03.543Z,97308.97
2022-12-28T22:30:04.854Z,97317.75
2022-12-28T22:32:06.218Z,97311.19
2022-12-28T22:34:07.735Z,97308.97
2022-12-28T22:36:09.084Z,97305.75
2022-12-28T22:38:10.396Z,97305.44
2022-12-28T22:40:11.782Z,97300.09
2022-12-28T22:42:13.121Z,97302.22
2022-12-28T22:44:14.554Z,97295.53
2022-12-28T22:46:16.019Z,97293.94
2022-12-28T22:48:17.418Z,97292.94
2022-12-28T22:50:18.773Z,97290.31
2022-12-28T22:52:20.092Z,97291.97
2022-12-28T22:54:24.341Z,97293.72
2022-12-28T22:56:25.771Z,97283.47
2022-12-28T22:58:27.106Z,97287.88
2022-12-28T23:00:28.421Z,97268.75
2022-12-28T23:02:30.356Z,97289.31
2022-12-28T23:04:31.837Z,97273.88
2022-12-28T23:06:33.154Z,97284.84
2022-12-28T23:08:34.518Z,97269.69
2022-12-28T23:10:35.865Z,97056.09
2022-12-28T23:12:37.164Z,97268.13
2022-12-28T23:14:57.051Z,97253.63
2022-12-28T23:16:58.421Z,97253.84
2022-12-28T23:19:18.510Z,97259.66
2022-12-28T23:21:44.595Z,97253.59
2022-12-28T23:24:04.665Z,97248.69
2022-12-28T23:26:24.595Z,97251.03
2022-12-28T23:28:25.914Z,97255.31
2022-12-28T23:30:27.270Z,97254.34
2022-12-28T23:32:28.639Z,97241.31
2022-12-28T23:34:29.983Z,97243.22
2022-12-28T23:36:33.529Z,97245.59
2022-12-28T23:38:34.889Z,97233.91
2022-12-28T23:40:36.466Z,97233.75
2022-12-28T23:42:37.820Z,97226.88
2022-12-28T23:44:39.153Z,97237.06
2022-12-28T23:46:41.543Z,97228.47
2022-12-28T23:48:42.903Z,97221.66
2022-12-28T23:50:44.210Z,97217.44
2022-12-28T23:52:45.545Z,97222.47
2022-12-28T23:54:46.941Z,97207.00
2022-12-28T23:56:49.098Z,97211.28
2022-12-28T23:58:50.423Z,97209.38
